createdAt,value
2022-08-03T00:01:48.868Z,61.65
2022-08-03T00:04:15.303Z,62.18
2022-08-03T00:06:41.789Z,61.73
2022-08-03T00:09:08.874Z,62.27
2022-08-03T00:11:36.530Z,62.47
2022-08-03T00:14:05.112Z,62.65
2022-08-03T00:16:31.650Z,62.84
2022-08-03T00:18:58.258Z,62.52
2022-08-03T00:21:27.669Z,62.65
2022-08-03T00:23:54.098Z,62.41
2022-08-03T00:26:21.875Z,62.05
2022-08-03T00:28:49.007Z,62.74
2022-08-03T00:31:15.854Z,62.64
2022-08-03T00:33:58.244Z,62.59
2022-08-03T00:36:26.818Z,62.92
2022-08-03T00:38:53.216Z,62.95
2022-08-03T00:41:19.776Z,63.10
2022-08-03T00:43:47.402Z,63.06
2022-08-03T00:46:16.458Z,63.13
2022-08-03T00:48:47.225Z,63.36
2022-08-03T00:51:13.816Z,63.33
2022-08-03T00:53:40.738Z,63.61
2022-08-03T00:56:07.289Z,64.01
2022-08-03T00:58:33.700Z,63.53
2022-08-03T01:01:00.267Z,63.49
2022-08-03T01:03:26.779Z,63.56
2022-08-03T01:06:00.437Z,63.70
2022-08-03T01:08:33.214Z,64.04
2022-08-03T01:11:19.025Z,64.34
2022-08-03T01:14:19.221Z,64.19
2022-08-03T01:17:28.153Z,63.93
2022-08-03T01:20:02.509Z,63.95
2022-08-03T01:22:50.686Z,64.46
2022-08-03T01:25:38.995Z,64.99
2022-08-03T01:28:11.445Z,64.55
2022-08-03T01:30:40.787Z,64.70
2022-08-03T01:33:17.522Z,65.82
2022-08-03T01:35:59.461Z,65.50
2022-08-03T01:38:29.359Z,65.41
2022-08-03T01:40:57.777Z,65.17
2022-08-03T01:44:28.606Z,64.95
2022-08-03T01:46:16.888Z,65.16
2022-08-03T01:48:46.219Z,65.26
2022-08-03T01:51:15.603Z,66.06
2022-08-03T01:53:43.281Z,66.16
2022-08-03T01:56:10.668Z,65.90
2022-08-03T01:58:38.715Z,65.61
2022-08-03T02:01:06.020Z,65.53
2022-08-03T02:03:38.260Z,65.72
2022-08-03T02:07:01.376Z,65.75
2022-08-03T02:09:14.855Z,65.47
2022-08-03T02:11:42.683Z,65.36
2022-08-03T02:14:10.560Z,65.75
2022-08-03T02:16:37.200Z,65.65
2022-08-03T02:19:06.508Z,65.99
2022-08-03T02:21:57.471Z,66.43
2022-08-03T02:24:23.279Z,66.91
2022-08-03T02:26:53.164Z,66.96
2022-08-03T02:29:39.709Z,67.35
2022-08-03T02:32:10.794Z,67.50
2022-08-03T02:34:39.815Z,67.15
2022-08-03T02:37:08.497Z,67.51
2022-08-03T02:39:36.790Z,68.27
2022-08-03T02:42:05.720Z,68.14
2022-08-03T02:44:34.085Z,68.20
2022-08-03T02:47:10.240Z,68.21
2022-08-03T02:49:50.578Z,68.20
2022-08-03T02:52:20.636Z,68.22
2022-08-03T02:54:50.965Z,68.37
2022-08-03T02:57:19.368Z,68.46
2022-08-03T02:59:46.083Z,68.66
2022-08-03T03:02:15.818Z,68.03
2022-08-03T03:05:52.989Z,67.33
2022-08-03T03:07:31.323Z,67.54
2022-08-03T03:10:09.320Z,68.38
2022-08-03T03:12:40.792Z,68.66
2022-08-03T03:15:07.614Z,68.89
2022-08-03T03:17:37.267Z,68.91
2022-08-03T03:20:04.648Z,68.58
2022-08-03T03:22:33.473Z,68.52
2022-08-03T03:25:00.617Z,68.57
2022-08-03T03:27:27.240Z,69.11
2022-08-03T03:29:54.047Z,69.66
2022-08-03T03:32:20.547Z,69.64
2022-08-03T03:34:47.911Z,69.67
2022-08-03T03:37:14.388Z,69.16
2022-08-03T03:39:40.853Z,69.54
2022-08-03T03:42:07.582Z,69.47
2022-08-03T03:44:34.137Z,69.74
2022-08-03T03:47:00.836Z,69.63
2022-08-03T03:49:27.647Z,69.44
2022-08-03T03:51:55.517Z,69.48
2022-08-03T03:54:22.380Z,70.52
2022-08-03T03:56:52.187Z,70.56
2022-08-03T03:59:18.688Z,70.67
2022-08-03T04:01:45.627Z,70.63
2022-08-03T04:04:30.788Z,71.02
2022-08-03T04:07:15.640Z,71.26
2022-08-03T04:10:14.746Z,71.51
2022-08-03T04:12:50.184Z,71.66
2022-08-03T04:15:21.349Z,71.89
2022-08-03T04:17:50.216Z,71.39
2022-08-03T04:20:20.068Z,71.67
2022-08-03T04:22:49.613Z,71.73
2022-08-03T04:25:19.332Z,72.22
2022-08-03T04:28:07.990Z,71.66
2022-08-03T04:30:38.712Z,71.50
2022-08-03T04:33:06.291Z,71.18
2022-08-03T04:36:02.266Z,71.37
2022-08-03T04:38:23.675Z,72.07
2022-08-03T04:40:50.776Z,72.88
2022-08-03T04:43:18.542Z,73.00
2022-08-03T04:45:47.821Z,73.03
2022-08-03T04:48:15.340Z,72.77
2022-08-03T04:50:42.842Z,73.17
2022-08-03T04:53:09.392Z,72.71
2022-08-03T04:55:36.441Z,72.27
2022-08-03T04:58:04.304Z,72.23
2022-08-03T05:00:30.987Z,72.64
2022-08-03T05:02:57.759Z,72.98
2022-08-03T05:05:24.881Z,73.24
2022-08-03T05:07:52.075Z,73.62
2022-08-03T05:10:19.864Z,73.26
2022-08-03T05:12:48.364Z,73.75
2022-08-03T05:15:15.833Z,73.67
2022-08-03T05:17:42.710Z,73.96
2022-08-03T05:20:13.044Z,73.79
2022-08-03T05:22:39.580Z,73.38
2022-08-03T05:25:06.473Z,73.26
2022-08-03T05:27:32.929Z,73.42
2022-08-03T05:30:30.839Z,74.26
2022-08-03T05:32:45.961Z,74.42
2022-08-03T05:36:01.182Z,74.32
2022-08-03T05:37:58.950Z,74.18
2022-08-03T05:40:25.367Z,73.85
2022-08-03T05:42:53.652Z,73.88
2022-08-03T05:45:20.243Z,73.79
2022-08-03T05:47:47.887Z,73.40
2022-08-03T05:50:14.648Z,73.87
2022-08-03T05:52:41.431Z,73.33
2022-08-03T05:55:08.767Z,73.53
2022-08-03T05:57:35.387Z,73.14
2022-08-03T06:00:10.033Z,73.04
2022-08-03T06:02:39.420Z,73.14
2022-08-03T06:05:06.806Z,73.35
2022-08-03T06:07:33.344Z,72.81
2022-08-03T06:10:35.662Z,72.51
2022-08-03T06:12:49.398Z,72.25
2022-08-03T06:15:16.511Z,72.36
2022-08-03T06:17:50.638Z,72.04
2022-08-03T06:20:18.839Z,72.08
2022-08-03T06:22:50.873Z,72.06
2022-08-03T06:25:19.309Z,71.80
2022-08-03T06:27:48.075Z,71.48
2022-08-03T06:30:19.291Z,70.89
2022-08-03T06:32:52.096Z,70.72
2022-08-03T06:35:19.501Z,70.64
2022-08-03T06:37:51.857Z,70.37
2022-08-03T06:40:29.029Z,69.99
2022-08-03T06:42:56.900Z,70.23
2022-08-03T06:45:23.694Z,70.25
2022-08-03T06:48:00.940Z,70.30
2022-08-03T06:50:27.524Z,70.39
2022-08-03T06:52:54.047Z,69.28
2022-08-03T06:55:20.483Z,68.87
2022-08-03T06:57:46.881Z,68.47
2022-08-03T07:00:14.576Z,68.19
2022-08-03T07:02:41.568Z,68.26
2022-08-03T07:05:09.648Z,67.59
2022-08-03T07:07:36.857Z,66.41
2022-08-03T07:10:04.436Z,65.90
2022-08-03T07:12:31.676Z,65.88
2022-08-03T07:15:01.704Z,65.74
2022-08-03T07:17:34.511Z,65.21
2022-08-03T07:20:02.527Z,65.95
2022-08-03T07:22:29.344Z,66.00
2022-08-03T07:24:56.559Z,65.23
2022-08-03T07:27:23.390Z,64.44
2022-08-03T07:29:49.838Z,64.31
2022-08-03T07:32:16.429Z,64.87
2022-08-03T07:34:43.043Z,64.68
2022-08-03T07:37:09.477Z,63.83
2022-08-03T07:39:35.910Z,62.96
2022-08-03T07:42:02.417Z,63.87
2022-08-03T07:44:28.933Z,61.97
2022-08-03T07:46:55.346Z,61.38
2022-08-03T07:49:23.404Z,61.38
2022-08-03T07:52:08.548Z,61.57
2022-08-03T07:54:35.008Z,61.03
2022-08-03T07:57:01.419Z,60.54
2022-08-03T07:59:28.123Z,60.70
2022-08-03T08:02:15.008Z,62.05
2022-08-03T08:04:41.962Z,61.76
2022-08-03T08:07:08.435Z,61.01
2022-08-03T08:09:35.208Z,61.14
2022-08-03T08:12:01.699Z,61.52
2022-08-03T08:14:28.168Z,60.88
2022-08-03T08:16:56.105Z,59.95
2022-08-03T08:19:22.565Z,59.35
2022-08-03T08:21:53.702Z,59.23
2022-08-03T08:24:30.437Z,58.58
2022-08-03T08:26:57.747Z,57.75
2022-08-03T08:29:24.262Z,57.15
2022-08-03T08:31:50.710Z,57.66
2022-08-03T08:34:17.232Z,57.65
2022-08-03T08:36:43.794Z,56.94
2022-08-03T08:39:10.248Z,56.56
2022-08-03T08:41:36.725Z,55.73
2022-08-03T08:44:03.479Z,54.84
2022-08-03T08:46:32.609Z,54.86
2022-08-03T08:48:59.995Z,55.10
2022-08-03T08:51:59.695Z,55.15
2022-08-03T08:54:22.945Z,54.64
2022-08-03T08:56:52.616Z,52.86
2022-08-03T08:59:19.759Z,53.46
2022-08-03T09:01:46.363Z,51.72
2022-08-03T09:04:13.051Z,51.62
2022-08-03T09:06:39.487Z,50.36
2022-08-03T09:09:06.635Z,51.91
2022-08-03T09:12:00.418Z,51.34
2022-08-03T09:14:39.173Z,50.15
2022-08-03T09:17:06.336Z,48.10
2022-08-03T09:19:34.128Z,48.34
2022-08-03T09:22:18.812Z,48.71
2022-08-03T09:25:24.283Z,46.63
2022-08-03T09:27:51.469Z,47.67
2022-08-03T09:30:34.235Z,47.64
2022-08-03T09:33:03.535Z,47.97
2022-08-03T09:35:53.049Z,47.13
2022-08-03T09:38:26.192Z,46.74
2022-08-03T09:40:59.179Z,44.96
2022-08-03T09:43:27.523Z,45.82
2022-08-03T09:46:03.693Z,46.80
2022-08-03T09:48:31.554Z,45.36
2022-08-03T09:51:14.243Z,45.54
2022-08-03T09:53:58.773Z,48.01
2022-08-03T09:56:41.919Z,45.19
2022-08-03T09:59:09.102Z,45.02
2022-08-03T10:01:37.261Z,45.75
2022-08-03T10:04:05.330Z,45.10
2022-08-03T10:06:32.047Z,46.30
2022-08-03T10:09:07.478Z,43.90
2022-08-03T10:11:40.805Z,43.18
2022-08-03T10:14:10.486Z,44.87
2022-08-03T10:16:39.377Z,45.77
2022-08-03T10:19:07.896Z,45.12
2022-08-03T10:21:36.511Z,45.03
2022-08-03T10:24:05.363Z,43.61
2022-08-03T10:26:39.071Z,43.04
2022-08-03T10:29:24.991Z,42.14
2022-08-03T10:31:58.227Z,40.89
2022-08-03T10:34:40.341Z,40.92
2022-08-03T10:37:12.475Z,43.02
2022-08-03T10:39:53.156Z,42.08
2022-08-03T10:42:24.217Z,41.80
2022-08-03T10:45:14.876Z,40.22
2022-08-03T10:47:41.653Z,39.68
2022-08-03T10:50:09.581Z,43.62
2022-08-03T10:52:41.157Z,39.93
2022-08-03T10:55:49.379Z,39.67
2022-08-03T10:58:30.633Z,39.72
2022-08-03T11:00:57.375Z,38.24
2022-08-03T11:03:23.877Z,37.93
2022-08-03T11:05:52.151Z,38.46
2022-08-03T11:08:34.818Z,38.76
2022-08-03T11:11:17.678Z,37.52
2022-08-03T11:14:03.443Z,37.74
2022-08-03T11:16:36.511Z,38.80
2022-08-03T11:19:08.360Z,38.21
2022-08-03T11:21:50.197Z,38.25
2022-08-03T11:24:39.204Z,38.52
2022-08-03T11:27:14.536Z,37.01
2022-08-03T11:29:58.717Z,37.84
2022-08-03T11:32:37.516Z,37.25
2022-08-03T11:35:28.899Z,39.52
2022-08-03T11:38:03.311Z,38.37
2022-08-03T11:40:37.731Z,37.26
2022-08-03T11:43:10.183Z,35.38
2022-08-03T11:45:37.364Z,36.49
2022-08-03T11:48:22.833Z,36.20
2022-08-03T11:50:50.077Z,36.62
2022-08-03T11:53:18.237Z,36.64
2022-08-03T11:55:48.845Z,35.80
2022-08-03T11:59:13.166Z,37.06
2022-08-03T12:01:07.687Z,37.32
2022-08-03T12:03:35.073Z,36.02
2022-08-03T12:06:02.361Z,36.33
2022-08-03T12:08:33.262Z,38.88
2022-08-03T12:11:03.095Z,36.96
2022-08-03T12:14:35.761Z,38.82
2022-08-03T12:16:33.637Z,37.55
2022-08-03T12:19:02.861Z,36.62
2022-08-03T12:21:30.134Z,36.99
2022-08-03T12:24:04.494Z,36.96
2022-08-03T12:26:54.493Z,38.15
2022-08-03T12:29:26.242Z,38.39
2022-08-03T12:31:52.695Z,36.50
2022-08-03T12:34:19.110Z,37.44
2022-08-03T12:36:54.368Z,36.75
2022-08-03T12:39:25.144Z,37.19
2022-08-03T12:41:55.959Z,37.39
2022-08-03T12:44:33.388Z,37.36
2022-08-03T12:47:01.136Z,35.71
2022-08-03T12:49:30.473Z,34.94
2022-08-03T12:52:01.735Z,35.98
2022-08-03T12:54:33.848Z,34.46
2022-08-03T12:57:10.201Z,36.44
2022-08-03T12:59:42.486Z,34.48
2022-08-03T13:02:25.751Z,34.80
2022-08-03T13:04:54.489Z,36.44
2022-08-03T13:07:22.577Z,36.40
2022-08-03T13:09:52.939Z,37.28
2022-08-03T13:12:27.601Z,35.43
2022-08-03T13:14:58.996Z,36.35
2022-08-03T13:17:26.912Z,36.11
2022-08-03T13:19:53.883Z,35.75
2022-08-03T13:22:28.968Z,34.96
2022-08-03T13:24:57.350Z,35.53
2022-08-03T13:28:04.379Z,36.80
2022-08-03T13:30:11.499Z,35.23
2022-08-03T13:32:38.288Z,33.57
2022-08-03T13:35:05.579Z,34.71
2022-08-03T13:37:32.546Z,35.04
2022-08-03T13:40:02.474Z,34.24
2022-08-03T13:42:30.346Z,34.96
2022-08-03T13:44:56.899Z,34.70
2022-08-03T13:47:23.560Z,35.48
2022-08-03T13:49:59.967Z,35.10
2022-08-03T13:52:35.813Z,34.49
2022-08-03T13:55:05.128Z,36.19
2022-08-03T13:58:02.554Z,35.59
2022-08-03T14:00:27.874Z,36.83
2022-08-03T14:03:16.381Z,37.16
2022-08-03T14:05:43.687Z,36.44
2022-08-03T14:08:10.863Z,35.24
2022-08-03T14:10:39.681Z,35.63
2022-08-03T14:13:06.281Z,35.59
2022-08-03T14:15:38.310Z,36.10
2022-08-03T14:18:07.169Z,35.94
2022-08-03T14:20:50.012Z,36.11
2022-08-03T14:23:17.936Z,35.86
2022-08-03T14:25:52.579Z,35.95
2022-08-03T14:28:22.362Z,35.87
2022-08-03T14:30:49.149Z,36.29
2022-08-03T14:33:15.852Z,33.90
2022-08-03T14:35:42.348Z,34.41
2022-08-03T14:38:08.856Z,34.96
2022-08-03T14:40:35.340Z,34.91
2022-08-03T14:43:02.500Z,34.89
2022-08-03T14:45:28.976Z,36.37
2022-08-03T14:50:29.165Z,35.51
2022-08-03T14:50:45.650Z,34.44
2022-08-03T14:53:17.626Z,35.63
2022-08-03T14:55:50.334Z,34.73
2022-08-03T14:58:22.323Z,34.53
2022-08-03T15:00:50.618Z,36.09
2022-08-03T15:03:20.300Z,35.59
2022-08-03T15:05:47.170Z,35.65
2022-08-03T15:08:13.616Z,35.38
2022-08-03T15:10:40.357Z,35.74
2022-08-03T15:13:10.623Z,35.79
2022-08-03T15:15:37.095Z,35.21
2022-08-03T15:18:03.707Z,35.55
2022-08-03T15:20:43.247Z,35.55
2022-08-03T15:23:12.323Z,35.82
2022-08-03T15:26:06.494Z,35.66
2022-08-03T15:28:25.405Z,35.12
2022-08-03T15:30:52.979Z,36.07
2022-08-03T15:33:20.112Z,35.08
2022-08-03T15:35:47.439Z,35.85
2022-08-03T15:38:14.013Z,34.21
2022-08-03T15:40:40.485Z,34.49
2022-08-03T15:43:07.258Z,35.53
2022-08-03T15:45:35.479Z,35.57
2022-08-03T15:48:06.974Z,36.22
2022-08-03T15:50:33.489Z,37.53
2022-08-03T15:52:59.968Z,37.60
2022-08-03T15:55:26.632Z,36.73
2022-08-03T15:59:03.435Z,37.16
2022-08-03T16:00:40.269Z,37.38
2022-08-03T16:03:06.684Z,37.20
2022-08-03T16:05:33.332Z,36.07
2022-08-03T16:08:03.822Z,34.98
2022-08-03T16:10:31.673Z,36.18
2022-08-03T16:13:01.183Z,36.63
2022-08-03T16:15:27.765Z,36.06
2022-08-03T16:17:54.537Z,36.14
2022-08-03T16:20:29.205Z,35.82
2022-08-03T16:23:00.668Z,34.79
2022-08-03T16:25:35.716Z,34.74
2022-08-03T16:28:07.715Z,34.66
2022-08-03T16:30:40.381Z,34.62
2022-08-03T16:33:07.015Z,34.24
2022-08-03T16:35:33.636Z,34.47
2022-08-03T16:38:00.516Z,34.98
2022-08-03T16:40:27.231Z,35.30
2022-08-03T16:42:54.341Z,35.55
2022-08-03T16:45:20.821Z,34.96
2022-08-03T16:47:47.241Z,34.71
2022-08-03T16:50:27.774Z,34.96
2022-08-03T16:52:54.231Z,34.79
2022-08-03T16:55:42.787Z,35.11
2022-08-03T16:58:07.967Z,34.72
2022-08-03T17:00:41.746Z,35.40
2022-08-03T17:03:16.395Z,34.61
2022-08-03T17:05:49.619Z,34.84
2022-08-03T17:08:18.921Z,35.13
2022-08-03T17:10:52.910Z,35.34
2022-08-03T17:13:22.022Z,34.72
2022-08-03T17:15:58.191Z,34.63
2022-08-03T17:18:34.138Z,35.32
2022-08-03T17:21:05.696Z,34.55
2022-08-03T17:23:49.593Z,35.64
2022-08-03T17:26:21.973Z,35.42
2022-08-03T17:28:57.425Z,35.62
2022-08-03T17:31:31.224Z,35.39
2022-08-03T17:34:12.648Z,34.42
2022-08-03T17:37:03.173Z,35.01
2022-08-03T17:39:48.535Z,35.10
2022-08-03T17:42:30.658Z,34.80
2022-08-03T17:45:02.057Z,35.39
2022-08-03T17:47:42.578Z,35.31
2022-08-03T17:50:23.427Z,35.66
2022-08-03T17:53:07.377Z,35.68
2022-08-03T17:55:56.823Z,35.38
2022-08-03T17:58:38.553Z,34.78
2022-08-03T18:02:00.101Z,34.60
2022-08-03T18:04:21.786Z,34.95
2022-08-03T18:06:59.384Z,34.60
2022-08-03T18:10:04.006Z,34.71
2022-08-03T18:12:29.357Z,34.70
2022-08-03T18:15:01.079Z,35.05
2022-08-03T18:17:58.346Z,35.10
2022-08-03T18:20:31.194Z,35.45
2022-08-03T18:25:56.178Z,36.06
2022-08-03T18:28:28.765Z,36.82
2022-08-03T18:30:56.407Z,38.03
2022-08-03T18:34:19.855Z,39.09
2022-08-03T18:36:21.642Z,40.17
2022-08-03T18:38:58.409Z,40.55
2022-08-03T18:41:32.505Z,40.94
2022-08-03T18:44:08.543Z,41.64
2022-08-03T18:47:06.879Z,42.23
2022-08-03T18:50:19.509Z,42.70
2022-08-03T18:52:54.604Z,43.21
2022-08-03T18:55:32.943Z,43.63
2022-08-03T19:01:03.356Z,43.97
2022-08-03T19:03:42.739Z,44.45
2022-08-03T19:06:20.009Z,44.37
2022-08-03T19:09:02.507Z,44.26
2022-08-03T19:12:14.443Z,44.54
2022-08-03T19:14:39.322Z,44.86
2022-08-03T19:17:10.995Z,45.35
2022-08-03T19:19:44.095Z,45.39
2022-08-03T19:22:12.573Z,45.66
2022-08-03T19:24:45.616Z,45.74
2022-08-03T19:27:12.793Z,46.00
2022-08-03T19:29:58.719Z,45.80
2022-08-03T19:32:30.724Z,45.75
2022-08-03T19:34:59.405Z,45.89
2022-08-03T19:37:27.519Z,45.80
2022-08-03T19:40:05.864Z,46.35
2022-08-03T19:42:40.608Z,46.85
2022-08-03T19:45:13.953Z,46.74
2022-08-03T19:47:58.464Z,46.65
2022-08-03T19:50:25.227Z,46.92
2022-08-03T19:52:52.847Z,47.07
2022-08-03T19:55:19.943Z,47.15
2022-08-03T19:57:49.233Z,47.17
2022-08-03T20:00:19.370Z,46.90
2022-08-03T20:02:46.361Z,46.55
2022-08-03T20:05:15.264Z,46.60
2022-08-03T20:08:04.032Z,46.94
2022-08-03T20:10:32.116Z,46.95
2022-08-03T20:12:59.753Z,47.78
2022-08-03T20:15:31.710Z,47.48
2022-08-03T20:17:59.300Z,47.69
2022-08-03T20:20:33.680Z,47.85
2022-08-03T20:23:03.227Z,47.65
2022-08-03T20:28:50.665Z,47.75
2022-08-03T20:31:23.940Z,48.21
2022-08-03T20:34:00.239Z,48.46
2022-08-03T20:36:26.964Z,47.98
2022-08-03T20:38:57.616Z,48.53
2022-08-03T20:41:24.880Z,48.20
2022-08-03T20:43:51.375Z,48.28
2022-08-03T20:46:32.617Z,48.77
2022-08-03T20:49:05.834Z,49.15
2022-08-03T20:51:52.568Z,49.17
2022-08-03T20:54:29.563Z,49.22
2022-08-03T20:56:59.731Z,49.81
2022-08-03T20:59:36.600Z,49.96
2022-08-03T21:02:13.597Z,49.71
2022-08-03T21:04:47.406Z,49.66
2022-08-03T21:07:23.939Z,49.77
2022-08-03T21:09:52.839Z,50.04
2022-08-03T21:12:38.143Z,49.70
2022-08-03T21:13:00.963Z,43.74
2022-08-03T21:13:04.851Z,35.61
2022-08-03T21:13:06.879Z,47.46
2022-08-03T21:15:09.605Z,49.96
2022-08-03T21:17:58.066Z,49.55
2022-08-03T21:20:31.936Z,50.10
2022-08-03T21:23:00.550Z,50.09
2022-08-03T21:25:31.319Z,50.13
2022-08-03T21:27:59.171Z,50.31
2022-08-03T21:30:29.913Z,50.32
2022-08-03T21:32:57.964Z,50.30
2022-08-03T21:35:25.143Z,50.13
2022-08-03T21:38:11.931Z,50.47
2022-08-03T21:40:40.164Z,50.80
2022-08-03T21:43:07.134Z,51.00
2022-08-03T21:45:44.263Z,51.49
2022-08-03T21:48:13.572Z,51.65
2022-08-03T21:50:42.383Z,51.53
2022-08-03T21:53:10.900Z,51.21
2022-08-03T21:55:50.431Z,51.40
2022-08-03T21:58:29.406Z,51.87
2022-08-03T22:00:58.107Z,51.93
2022-08-03T22:03:25.864Z,52.32
2022-08-03T22:05:53.124Z,52.15
2022-08-03T22:08:34.471Z,52.51
2022-08-03T22:11:04.306Z,52.49
2022-08-03T22:13:43.185Z,52.47
2022-08-03T22:16:11.533Z,52.17
2022-08-03T22:18:39.590Z,52.60
2022-08-03T22:21:07.603Z,52.45
2022-08-03T22:23:40.658Z,52.70
2022-08-03T22:26:13.130Z,52.92
2022-08-03T22:28:40.004Z,53.11
2022-08-03T22:31:37.642Z,53.41
2022-08-03T22:33:54.440Z,53.31
2022-08-03T22:36:23.439Z,53.14
2022-08-03T22:38:53.606Z,53.51
2022-08-03T22:41:21.054Z,53.14
2022-08-03T22:43:49.380Z,53.59
2022-08-03T22:46:20.737Z,53.35
2022-08-03T22:48:48.352Z,54.06
2022-08-03T22:51:15.527Z,53.60
2022-08-03T22:53:42.304Z,53.49
2022-08-03T22:56:08.847Z,53.47
2022-08-03T22:58:35.349Z,53.91
2022-08-03T23:01:05.672Z,54.46
2022-08-03T23:03:58.780Z,54.61
2022-08-03T23:06:25.256Z,54.53
2022-08-03T23:08:51.793Z,54.65
2022-08-03T23:11:18.948Z,54.54
2022-08-03T23:13:51.831Z,54.41
2022-08-03T23:16:27.939Z,54.65
2022-08-03T23:18:57.619Z,54.72
2022-08-03T23:22:01.025Z,54.57
2022-08-03T23:24:26.026Z,54.65
2022-08-03T23:26:57.123Z,54.97
2022-08-03T23:29:23.864Z,55.12
2022-08-03T23:31:52.269Z,55.07
2022-08-03T23:34:37.669Z,55.01
2022-08-03T23:37:05.478Z,55.21
2022-08-03T23:39:35.015Z,55.02
2022-08-03T23:42:03.182Z,55.05
2022-08-03T23:44:34.535Z,55.33
2022-08-03T23:47:01.053Z,55.52
2022-08-03T23:49:27.567Z,55.64
2022-08-03T23:52:28.723Z,55.88
2022-08-03T23:55:13.697Z,55.81
2022-08-03T23:58:01.247Z,55.96
